sensor_id;sensor_type;location;lat;lon;timestamp;pressure;altitude;pressure_sealevel;temperature
61390;BMP280;47260;48.274;19.814;2022-08-19T00:01:10;99020.38;;;22.83
61390;BMP280;47260;48.274;19.814;2022-08-19T00:03:37;99032.88;;;22.86
61390;BMP280;47260;48.274;19.814;2022-08-19T00:06:03;99027.25;;;22.84
61390;BMP280;47260;48.274;19.814;2022-08-19T00:08:30;99024.38;;;22.82
61390;BMP280;47260;48.274;19.814;2022-08-19T00:10:57;99029.41;;;22.85
61390;BMP280;47260;48.274;19.814;2022-08-19T00:13:25;99023.25;;;22.85
61390;BMP280;47260;48.274;19.814;2022-08-19T00:15:53;99033.59;;;22.65
61390;BMP280;47260;48.274;19.814;2022-08-19T00:18:20;99018.28;;;22.51
61390;BMP280;47260;48.274;19.814;2022-08-19T00:20:46;99021.13;;;22.31
61390;BMP280;47260;48.274;19.814;2022-08-19T00:23:13;99017.22;;;22.34
61390;BMP280;47260;48.274;19.814;2022-08-19T00:25:40;99026.25;;;22.37
61390;BMP280;47260;48.274;19.814;2022-08-19T00:28:06;99020.78;;;22.37
61390;BMP280;47260;48.274;19.814;2022-08-19T00:30:34;99005.84;;;22.38
61390;BMP280;47260;48.274;19.814;2022-08-19T00:33:01;99018.38;;;22.31
61390;BMP280;47260;48.274;19.814;2022-08-19T00:35:28;99008.03;;;22.30
61390;BMP280;47260;48.274;19.814;2022-08-19T00:37:55;99008.47;;;22.26
61390;BMP280;47260;48.274;19.814;2022-08-19T00:40:21;99009.78;;;22.25
61390;BMP280;47260;48.274;19.814;2022-08-19T00:42:48;98999.25;;;22.31
61390;BMP280;47260;48.274;19.814;2022-08-19T00:45:19;99003.16;;;22.28
61390;BMP280;47260;48.274;19.814;2022-08-19T00:47:47;98992.91;;;22.29
61390;BMP280;47260;48.274;19.814;2022-08-19T00:50:15;99000.25;;;22.26
61390;BMP280;47260;48.274;19.814;2022-08-19T00:52:43;98993.25;;;22.23
61390;BMP280;47260;48.274;19.814;2022-08-19T00:55:13;98996.44;;;22.20
61390;BMP280;47260;48.274;19.814;2022-08-19T00:57:40;98988.22;;;22.20
61390;BMP280;47260;48.274;19.814;2022-08-19T01:00:09;98996.28;;;22.18
61390;BMP280;47260;48.274;19.814;2022-08-19T01:02:36;98983.78;;;22.15
61390;BMP280;47260;48.274;19.814;2022-08-19T01:05:05;98988.41;;;22.12
61390;BMP280;47260;48.274;19.814;2022-08-19T01:07:32;98988.41;;;22.12
61390;BMP280;47260;48.274;19.814;2022-08-19T01:09:59;98980.41;;;21.95
61390;BMP280;47260;48.274;19.814;2022-08-19T01:12:26;98988.50;;;21.93
61390;BMP280;47260;48.274;19.814;2022-08-19T01:14:52;98988.69;;;21.86
61390;BMP280;47260;48.274;19.814;2022-08-19T01:17:19;98989.53;;;21.88
61390;BMP280;47260;48.274;19.814;2022-08-19T01:19:47;98991.78;;;21.92
61390;BMP280;47260;48.274;19.814;2022-08-19T01:22:16;98990.22;;;21.89
61390;BMP280;47260;48.274;19.814;2022-08-19T01:24:48;98990.94;;;21.89
61390;BMP280;47260;48.274;19.814;2022-08-19T01:27:14;98990.69;;;21.85
61390;BMP280;47260;48.274;19.814;2022-08-19T01:29:41;98992.44;;;21.71
61390;BMP280;47260;48.274;19.814;2022-08-19T01:32:08;98987.13;;;21.64
61390;BMP280;47260;48.274;19.814;2022-08-19T01:34:37;98991.22;;;21.53
61390;BMP280;47260;48.274;19.814;2022-08-19T01:37:05;98983.00;;;21.53
61390;BMP280;47260;48.274;19.814;2022-08-19T01:39:33;98978.97;;;21.54
61390;BMP280;47260;48.274;19.814;2022-08-19T01:42:01;98980.56;;;21.57
61390;BMP280;47260;48.274;19.814;2022-08-19T01:44:29;98980.25;;;21.63
61390;BMP280;47260;48.274;19.814;2022-08-19T01:46:56;98966.47;;;21.61
61390;BMP280;47260;48.274;19.814;2022-08-19T01:49:23;98969.22;;;21.51
61390;BMP280;47260;48.274;19.814;2022-08-19T01:51:52;98957.19;;;21.35
61390;BMP280;47260;48.274;19.814;2022-08-19T01:54:19;98957.75;;;21.24
61390;BMP280;47260;48.274;19.814;2022-08-19T01:56:46;98960.31;;;21.32
61390;BMP280;47260;48.274;19.814;2022-08-19T01:59:14;98975.00;;;21.36
61390;BMP280;47260;48.274;19.814;2022-08-19T02:01:42;98973.31;;;21.31
61390;BMP280;47260;48.274;19.814;2022-08-19T02:04:08;98981.50;;;21.31
61390;BMP280;47260;48.274;19.814;2022-08-19T02:06:35;98969.97;;;21.33
61390;BMP280;47260;48.274;19.814;2022-08-19T02:09:02;98976.03;;;21.31
61390;BMP280;47260;48.274;19.814;2022-08-19T02:11:30;98980.88;;;21.33
61390;BMP280;47260;48.274;19.814;2022-08-19T02:13:57;98975.00;;;21.17
61390;BMP280;47260;48.274;19.814;2022-08-19T02:16:25;98973.88;;;21.11
61390;BMP280;47260;48.274;19.814;2022-08-19T02:18:51;98973.44;;;21.14
61390;BMP280;47260;48.274;19.814;2022-08-19T02:21:18;98982.03;;;21.20
61390;BMP280;47260;48.274;19.814;2022-08-19T02:23:45;98978.75;;;20.93
61390;BMP280;47260;48.274;19.814;2022-08-19T02:26:12;98982.63;;;20.81
61390;BMP280;47260;48.274;19.814;2022-08-19T02:28:39;98969.00;;;20.81
61390;BMP280;47260;48.274;19.814;2022-08-19T02:31:09;98972.72;;;20.85
61390;BMP280;47260;48.274;19.814;2022-08-19T02:33:37;98972.00;;;20.75
61390;BMP280;47260;48.274;19.814;2022-08-19T02:36:04;98974.75;;;20.75
61390;BMP280;47260;48.274;19.814;2022-08-19T02:38:31;98971.75;;;20.71
61390;BMP280;47260;48.274;19.814;2022-08-19T02:40:58;98965.41;;;20.69
61390;BMP280;47260;48.274;19.814;2022-08-19T02:43:24;98951.91;;;20.61
61390;BMP280;47260;48.274;19.814;2022-08-19T02:45:51;98956.06;;;20.62
61390;BMP280;47260;48.274;19.814;2022-08-19T02:48:18;98955.47;;;20.64
61390;BMP280;47260;48.274;19.814;2022-08-19T02:50:47;98957.78;;;20.58
61390;BMP280;47260;48.274;19.814;2022-08-19T02:53:16;98969.13;;;20.64
61390;BMP280;47260;48.274;19.814;2022-08-19T02:55:43;98964.94;;;20.53
61390;BMP280;47260;48.274;19.814;2022-08-19T02:58:10;98963.06;;;20.55
61390;BMP280;47260;48.274;19.814;2022-08-19T03:00:40;98971.53;;;20.50
61390;BMP280;47260;48.274;19.814;2022-08-19T03:03:08;98969.94;;;20.47
61390;BMP280;47260;48.274;19.814;2022-08-19T03:05:35;98965.81;;;20.46
61390;BMP280;47260;48.274;19.814;2022-08-19T03:08:03;98973.53;;;20.40
61390;BMP280;47260;48.274;19.814;2022-08-19T03:10:30;98977.72;;;20.41
61390;BMP280;47260;48.274;19.814;2022-08-19T03:12:57;98982.00;;;20.44
61390;BMP280;47260;48.274;19.814;2022-08-19T03:15:24;98975.84;;;20.34
61390;BMP280;47260;48.274;19.814;2022-08-19T03:17:51;98982.09;;;20.27
61390;BMP280;47260;48.274;19.814;2022-08-19T03:20:17;98991.31;;;20.31
61390;BMP280;47260;48.274;19.814;2022-08-19T03:22:44;98988.25;;;20.27
61390;BMP280;47260;48.274;19.814;2022-08-19T03:25:12;98987.28;;;20.32
61390;BMP280;47260;48.274;19.814;2022-08-19T03:27:39;98986.44;;;20.39
61390;BMP280;47260;48.274;19.814;2022-08-19T03:30:06;98976.69;;;20.36
61390;BMP280;47260;48.274;19.814;2022-08-19T03:32:32;98988.25;;;20.27
61390;BMP280;47260;48.274;19.814;2022-08-19T03:34:59;98993.28;;;20.21
61390;BMP280;47260;48.274;19.814;2022-08-19T03:37:26;99013.91;;;20.15
61390;BMP280;47260;48.274;19.814;2022-08-19T03:39:53;99033.72;;;20.15
61390;BMP280;47260;48.274;19.814;2022-08-19T03:42:21;99033.47;;;20.21
61390;BMP280;47260;48.274;19.814;2022-08-19T03:44:48;99029.88;;;20.28
61390;BMP280;47260;48.274;19.814;2022-08-19T03:47:14;99021.72;;;20.28
61390;BMP280;47260;48.274;19.814;2022-08-19T03:49:42;99011.94;;;20.25
61390;BMP280;47260;48.274;19.814;2022-08-19T03:52:08;99015.34;;;20.16
61390;BMP280;47260;48.274;19.814;2022-08-19T03:54:35;99019.56;;;20.26
61390;BMP280;47260;48.274;19.814;2022-08-19T03:57:03;99017.13;;;20.30
61390;BMP280;47260;48.274;19.814;2022-08-19T03:59:32;99019.88;;;20.40
61390;BMP280;47260;48.274;19.814;2022-08-19T04:02:00;99024.94;;;20.53
61390;BMP280;47260;48.274;19.814;2022-08-19T04:04:27;99035.44;;;20.57
61390;BMP280;47260;48.274;19.814;2022-08-19T04:06:54;99036.47;;;20.61
61390;BMP280;47260;48.274;19.814;2022-08-19T04:09:21;99045.78;;;20.68
61390;BMP280;47260;48.274;19.814;2022-08-19T04:11:48;99039.34;;;20.63
61390;BMP280;47260;48.274;19.814;2022-08-19T04:14:16;99054.00;;;20.77
61390;BMP280;47260;48.274;19.814;2022-08-19T04:16:44;99058.06;;;20.95
61390;BMP280;47260;48.274;19.814;2022-08-19T04:19:11;99051.16;;;20.94
61390;BMP280;47260;48.274;19.814;2022-08-19T04:21:38;99050.75;;;21.07
61390;BMP280;47260;48.274;19.814;2022-08-19T04:24:05;99054.03;;;21.25
61390;BMP280;47260;48.274;19.814;2022-08-19T04:26:33;99050.88;;;21.47
61390;BMP280;47260;48.274;19.814;2022-08-19T04:29:00;99048.56;;;21.63
61390;BMP280;47260;48.274;19.814;2022-08-19T04:31:28;99054.25;;;21.76
61390;BMP280;47260;48.274;19.814;2022-08-19T04:33:57;99068.31;;;22.01
61390;BMP280;47260;48.274;19.814;2022-08-19T04:36:25;99071.25;;;22.24
61390;BMP280;47260;48.274;19.814;2022-08-19T04:38:53;99055.16;;;22.50
61390;BMP280;47260;48.274;19.814;2022-08-19T04:41:20;99052.69;;;22.75
61390;BMP280;47260;48.274;19.814;2022-08-19T04:44:04;99048.78;;;22.78
61390;BMP280;47260;48.274;19.814;2022-08-19T04:46:32;99044.50;;;22.96
61390;BMP280;47260;48.274;19.814;2022-08-19T04:49:00;99054.47;;;23.24
61390;BMP280;47260;48.274;19.814;2022-08-19T04:51:27;99050.50;;;23.48
61390;BMP280;47260;48.274;19.814;2022-08-19T04:53:55;99047.94;;;23.73
61390;BMP280;47260;48.274;19.814;2022-08-19T04:56:22;99042.94;;;23.92
61390;BMP280;47260;48.274;19.814;2022-08-19T04:58:52;99044.38;;;24.05
61390;BMP280;47260;48.274;19.814;2022-08-19T05:01:19;99048.13;;;24.46
61390;BMP280;47260;48.274;19.814;2022-08-19T05:03:46;99048.13;;;24.94
61390;BMP280;47260;48.274;19.814;2022-08-19T05:06:14;99040.38;;;25.16
61390;BMP280;47260;48.274;19.814;2022-08-19T05:08:42;99043.34;;;25.58
61390;BMP280;47260;48.274;19.814;2022-08-19T05:11:10;99056.63;;;25.75
61390;BMP280;47260;48.274;19.814;2022-08-19T05:13:37;99062.47;;;26.08
61390;BMP280;47260;48.274;19.814;2022-08-19T05:16:04;99062.34;;;26.33
61390;BMP280;47260;48.274;19.814;2022-08-19T05:18:31;99065.59;;;26.57
61390;BMP280;47260;48.274;19.814;2022-08-19T05:21:17;99063.34;;;26.82
61390;BMP280;47260;48.274;19.814;2022-08-19T05:24:01;99072.16;;;27.23
61390;BMP280;47260;48.274;19.814;2022-08-19T05:26:28;99072.09;;;27.37
61390;BMP280;47260;48.274;19.814;2022-08-19T05:28:54;99063.47;;;26.28
61390;BMP280;47260;48.274;19.814;2022-08-19T05:31:21;99047.94;;;26.77
61390;BMP280;47260;48.274;19.814;2022-08-19T05:33:48;99059.31;;;27.44
61390;BMP280;47260;48.274;19.814;2022-08-19T05:36:17;99043.66;;;27.33
61390;BMP280;47260;48.274;19.814;2022-08-19T05:38:45;99051.63;;;28.22
61390;BMP280;47260;48.274;19.814;2022-08-19T05:41:13;99049.50;;;28.71
61390;BMP280;47260;48.274;19.814;2022-08-19T05:43:39;99056.78;;;28.99
61390;BMP280;47260;48.274;19.814;2022-08-19T05:46:06;99054.00;;;29.36
61390;BMP280;47260;48.274;19.814;2022-08-19T05:48:33;99064.66;;;29.44
61390;BMP280;47260;48.274;19.814;2022-08-19T05:51:03;99060.06;;;29.70
61390;BMP280;47260;48.274;19.814;2022-08-19T05:53:32;99051.38;;;30.20
61390;BMP280;47260;48.274;19.814;2022-08-19T05:56:02;99048.09;;;30.26
61390;BMP280;47260;48.274;19.814;2022-08-19T05:58:29;99048.19;;;30.49
61390;BMP280;47260;48.274;19.814;2022-08-19T06:00:56;99054.03;;;30.83
61390;BMP280;47260;48.274;19.814;2022-08-19T06:03:22;99054.69;;;31.05
61390;BMP280;47260;48.274;19.814;2022-08-19T06:05:49;99061.81;;;31.88
61390;BMP280;47260;48.274;19.814;2022-08-19T06:08:15;99056.66;;;32.04
61390;BMP280;47260;48.274;19.814;2022-08-19T06:10:44;99071.44;;;32.11
61390;BMP280;47260;48.274;19.814;2022-08-19T06:13:11;99065.97;;;32.44
61390;BMP280;47260;48.274;19.814;2022-08-19T06:15:37;99064.31;;;31.76
61390;BMP280;47260;48.274;19.814;2022-08-19T06:18:06;99075.19;;;32.23
61390;BMP280;47260;48.274;19.814;2022-08-19T06:20:33;99082.31;;;31.75
61390;BMP280;47260;48.274;19.814;2022-08-19T06:22:59;99078.13;;;31.49
61390;BMP280;47260;48.274;19.814;2022-08-19T06:25:26;99081.81;;;30.61
61390;BMP280;47260;48.274;19.814;2022-08-19T06:27:54;99082.41;;;29.95
61390;BMP280;47260;48.274;19.814;2022-08-19T06:30:20;99088.59;;;29.94
61390;BMP280;47260;48.274;19.814;2022-08-19T06:32:47;99086.25;;;29.86
61390;BMP280;47260;48.274;19.814;2022-08-19T06:35:13;99076.44;;;30.46
61390;BMP280;47260;48.274;19.814;2022-08-19T06:37:40;99077.78;;;31.62
61390;BMP280;47260;48.274;19.814;2022-08-19T06:40:08;99079.59;;;30.58
61390;BMP280;47260;48.274;19.814;2022-08-19T06:42:35;99088.25;;;30.46
61390;BMP280;47260;48.274;19.814;2022-08-19T06:45:05;99079.19;;;30.89
61390;BMP280;47260;48.274;19.814;2022-08-19T06:47:33;99077.63;;;31.31
61390;BMP280;47260;48.274;19.814;2022-08-19T06:50:00;99083.25;;;30.86
61390;BMP280;47260;48.274;19.814;2022-08-19T06:52:29;99076.25;;;29.77
61390;BMP280;47260;48.274;19.814;2022-08-19T06:54:55;99084.72;;;29.44
61390;BMP280;47260;48.274;19.814;2022-08-19T06:57:23;99080.28;;;30.15
61390;BMP280;47260;48.274;19.814;2022-08-19T06:59:50;99086.22;;;30.70
61390;BMP280;47260;48.274;19.814;2022-08-19T07:02:18;99082.38;;;31.52
61390;BMP280;47260;48.274;19.814;2022-08-19T07:04:45;99079.06;;;31.57
61390;BMP280;47260;48.274;19.814;2022-08-19T07:07:13;99072.97;;;32.18
61390;BMP280;47260;48.274;19.814;2022-08-19T07:09:40;99069.69;;;32.55
61390;BMP280;47260;48.274;19.814;2022-08-19T07:12:08;99073.72;;;31.65
61390;BMP280;47260;48.274;19.814;2022-08-19T07:14:35;99068.91;;;32.50
61390;BMP280;47260;48.274;19.814;2022-08-19T07:17:03;99067.53;;;32.83
61390;BMP280;47260;48.274;19.814;2022-08-19T07:19:32;99069.13;;;32.60
61390;BMP280;47260;48.274;19.814;2022-08-19T07:22:00;99075.41;;;33.28
61390;BMP280;47260;48.274;19.814;2022-08-19T07:24:28;99082.22;;;33.58
61390;BMP280;47260;48.274;19.814;2022-08-19T07:26:56;99086.75;;;33.77
61390;BMP280;47260;48.274;19.814;2022-08-19T07:29:26;99084.72;;;33.42
61390;BMP280;47260;48.274;19.814;2022-08-19T07:31:53;99076.41;;;33.09
61390;BMP280;47260;48.274;19.814;2022-08-19T07:34:22;99076.38;;;32.14
61390;BMP280;47260;48.274;19.814;2022-08-19T07:36:50;99075.16;;;33.16
61390;BMP280;47260;48.274;19.814;2022-08-19T07:39:21;99071.78;;;33.21
61390;BMP280;47260;48.274;19.814;2022-08-19T07:41:48;99079.78;;;32.72
61390;BMP280;47260;48.274;19.814;2022-08-19T07:44:15;99069.63;;;33.18
61390;BMP280;47260;48.274;19.814;2022-08-19T07:46:43;99072.09;;;33.02
61390;BMP280;47260;48.274;19.814;2022-08-19T07:49:11;99073.78;;;32.52
61390;BMP280;47260;48.274;19.814;2022-08-19T07:51:44;99074.47;;;31.93
61390;BMP280;47260;48.274;19.814;2022-08-19T07:54:12;99072.03;;;32.37
61390;BMP280;47260;48.274;19.814;2022-08-19T07:56:39;99068.66;;;31.58
61390;BMP280;47260;48.274;19.814;2022-08-19T07:59:06;99068.28;;;31.97
61390;BMP280;47260;48.274;19.814;2022-08-19T08:01:32;99062.78;;;32.56
61390;BMP280;47260;48.274;19.814;2022-08-19T08:03:59;99063.38;;;32.23
61390;BMP280;47260;48.274;19.814;2022-08-19T08:06:43;99057.06;;;32.50
61390;BMP280;47260;48.274;19.814;2022-08-19T08:09:29;99058.78;;;31.51
61390;BMP280;47260;48.274;19.814;2022-08-19T08:11:57;99064.00;;;31.39
61390;BMP280;47260;48.274;19.814;2022-08-19T08:14:25;99051.38;;;31.34
61390;BMP280;47260;48.274;19.814;2022-08-19T08:16:52;99057.00;;;31.89
61390;BMP280;47260;48.274;19.814;2022-08-19T08:19:19;99057.03;;;31.63
61390;BMP280;47260;48.274;19.814;2022-08-19T08:21:46;99055.94;;;31.49
61390;BMP280;47260;48.274;19.814;2022-08-19T08:24:13;99056.31;;;31.37
61390;BMP280;47260;48.274;19.814;2022-08-19T08:26:41;99054.00;;;31.81
61390;BMP280;47260;48.274;19.814;2022-08-19T08:29:09;99056.50;;;30.94
61390;BMP280;47260;48.274;19.814;2022-08-19T08:31:36;99054.75;;;30.60
61390;BMP280;47260;48.274;19.814;2022-08-19T08:34:03;99052.19;;;31.15
61390;BMP280;47260;48.274;19.814;2022-08-19T08:36:29;99058.13;;;31.03
61390;BMP280;47260;48.274;19.814;2022-08-19T08:38:58;99054.03;;;31.55
61390;BMP280;47260;48.274;19.814;2022-08-19T08:41:27;99047.13;;;31.56
61390;BMP280;47260;48.274;19.814;2022-08-19T08:43:56;99040.94;;;31.09
61390;BMP280;47260;48.274;19.814;2022-08-19T08:46:24;99035.84;;;31.50
61390;BMP280;47260;48.274;19.814;2022-08-19T08:48:53;99033.91;;;31.29
61390;BMP280;47260;48.274;19.814;2022-08-19T08:51:22;99035.44;;;31.11
61390;BMP280;47260;48.274;19.814;2022-08-19T08:53:51;99031.84;;;31.83
61390;BMP280;47260;48.274;19.814;2022-08-19T08:56:18;99035.63;;;31.95
61390;BMP280;47260;48.274;19.814;2022-08-19T08:58:48;99031.63;;;31.75
61390;BMP280;47260;48.274;19.814;2022-08-19T09:01:18;99037.34;;;31.53
61390;BMP280;47260;48.274;19.814;2022-08-19T09:03:45;99029.75;;;32.40
61390;BMP280;47260;48.274;19.814;2022-08-19T09:06:14;99029.34;;;31.95
61390;BMP280;47260;48.274;19.814;2022-08-19T09:08:48;99030.72;;;31.41
61390;BMP280;47260;48.274;19.814;2022-08-19T09:11:17;99020.81;;;31.87
61390;BMP280;47260;48.274;19.814;2022-08-19T09:13:49;99021.78;;;32.27
61390;BMP280;47260;48.274;19.814;2022-08-19T09:16:19;99011.84;;;32.18
61390;BMP280;47260;48.274;19.814;2022-08-19T09:18:47;99013.41;;;32.25
61390;BMP280;47260;48.274;19.814;2022-08-19T09:21:15;99015.97;;;31.87
61390;BMP280;47260;48.274;19.814;2022-08-19T09:23:42;99026.63;;;31.97
61390;BMP280;47260;48.274;19.814;2022-08-19T09:26:09;99023.34;;;32.34
61390;BMP280;47260;48.274;19.814;2022-08-19T09:28:38;99027.44;;;32.31
61390;BMP280;47260;48.274;19.814;2022-08-19T09:31:08;99028.06;;;32.59
61390;BMP280;47260;48.274;19.814;2022-08-19T09:33:36;99032.22;;;32.58
61390;BMP280;47260;48.274;19.814;2022-08-19T09:36:04;99033.16;;;33.02
61390;BMP280;47260;48.274;19.814;2022-08-19T09:38:31;99040.41;;;33.17
61390;BMP280;47260;48.274;19.814;2022-08-19T09:41:01;99034.78;;;33.15
61390;BMP280;47260;48.274;19.814;2022-08-19T09:43:28;99028.16;;;32.63
61390;BMP280;47260;48.274;19.814;2022-08-19T09:45:54;99030.47;;;33.08
61390;BMP280;47260;48.274;19.814;2022-08-19T09:48:21;99030.25;;;32.64
61390;BMP280;47260;48.274;19.814;2022-08-19T09:50:49;99020.66;;;32.38
61390;BMP280;47260;48.274;19.814;2022-08-19T09:53:16;99015.97;;;33.13
61390;BMP280;47260;48.274;19.814;2022-08-19T09:55:42;99015.97;;;32.78
61390;BMP280;47260;48.274;19.814;2022-08-19T09:58:09;99021.47;;;33.09
61390;BMP280;47260;48.274;19.814;2022-08-19T10:00:37;99012.28;;;33.38
61390;BMP280;47260;48.274;19.814;2022-08-19T10:03:03;99017.75;;;32.63
61390;BMP280;47260;48.274;19.814;2022-08-19T10:05:30;99012.91;;;32.99
61390;BMP280;47260;48.274;19.814;2022-08-19T10:08:17;99015.97;;;32.78
61390;BMP280;47260;48.274;19.814;2022-08-19T10:10:44;99009.59;;;33.44
61390;BMP280;47260;48.274;19.814;2022-08-19T10:13:11;99007.03;;;33.58
61390;BMP280;47260;48.274;19.814;2022-08-19T10:15:38;98995.69;;;33.07
61390;BMP280;47260;48.274;19.814;2022-08-19T10:18:06;98996.06;;;33.27
61390;BMP280;47260;48.274;19.814;2022-08-19T10:20:32;98980.59;;;32.49
61390;BMP280;47260;48.274;19.814;2022-08-19T10:23:00;98976.66;;;32.93
61390;BMP280;47260;48.274;19.814;2022-08-19T10:25:28;98966.84;;;32.90
61390;BMP280;47260;48.274;19.814;2022-08-19T10:27:55;98969.25;;;33.08
61390;BMP280;47260;48.274;19.814;2022-08-19T10:30:21;98960.06;;;33.39
61390;BMP280;47260;48.274;19.814;2022-08-19T10:32:48;98962.00;;;32.91
61390;BMP280;47260;48.274;19.814;2022-08-19T10:35:15;98966.22;;;32.94
61390;BMP280;47260;48.274;19.814;2022-08-19T10:37:42;98963.88;;;32.80
61390;BMP280;47260;48.274;19.814;2022-08-19T10:40:09;98965.09;;;33.09
61390;BMP280;47260;48.274;19.814;2022-08-19T10:42:38;98976.53;;;33.25
61390;BMP280;47260;48.274;19.814;2022-08-19T10:45:05;98974.59;;;33.33
61390;BMP280;47260;48.274;19.814;2022-08-19T10:47:33;98976.69;;;32.95
61390;BMP280;47260;48.274;19.814;2022-08-19T10:50:00;98967.38;;;32.81
61390;BMP280;47260;48.274;19.814;2022-08-19T10:52:44;98974.06;;;33.03
61390;BMP280;47260;48.274;19.814;2022-08-19T10:55:11;98968.44;;;33.01
61390;BMP280;47260;48.274;19.814;2022-08-19T10:57:57;98976.78;;;33.01
61390;BMP280;47260;48.274;19.814;2022-08-19T11:00:24;98983.25;;;33.12
61390;BMP280;47260;48.274;19.814;2022-08-19T11:02:51;98972.97;;;33.20
61390;BMP280;47260;48.274;19.814;2022-08-19T11:05:18;98963.88;;;33.55
61390;BMP280;47260;48.274;19.814;2022-08-19T11:07:44;98961.63;;;33.93
61390;BMP280;47260;48.274;19.814;2022-08-19T11:10:12;98958.50;;;34.15
61390;BMP280;47260;48.274;19.814;2022-08-19T11:12:39;98963.19;;;34.02
61390;BMP280;47260;48.274;19.814;2022-08-19T11:15:08;98951.94;;;33.96
61390;BMP280;47260;48.274;19.814;2022-08-19T11:17:36;98947.69;;;33.93
61390;BMP280;47260;48.274;19.814;2022-08-19T11:20:06;98949.69;;;33.43
61390;BMP280;47260;48.274;19.814;2022-08-19T11:22:33;98946.41;;;33.53
61390;BMP280;47260;48.274;19.814;2022-08-19T11:25:00;98947.53;;;33.81
61390;BMP280;47260;48.274;19.814;2022-08-19T11:27:27;98945.63;;;33.94
61390;BMP280;47260;48.274;19.814;2022-08-19T11:29:54;98933.44;;;34.17
61390;BMP280;47260;48.274;19.814;2022-08-19T11:32:22;98923.22;;;33.86
61390;BMP280;47260;48.274;19.814;2022-08-19T11:34:48;98915.22;;;34.08
61390;BMP280;47260;48.274;19.814;2022-08-19T11:37:15;98914.84;;;33.86
61390;BMP280;47260;48.274;19.814;2022-08-19T11:39:42;98915.38;;;34.22
61390;BMP280;47260;48.274;19.814;2022-08-19T11:42:08;98914.59;;;34.15
61390;BMP280;47260;48.274;19.814;2022-08-19T11:44:49;98904.44;;;33.88
61390;BMP280;47260;48.274;19.814;2022-08-19T11:47:15;98911.91;;;33.74
61390;BMP280;47260;48.274;19.814;2022-08-19T11:49:43;98908.06;;;33.95
61390;BMP280;47260;48.274;19.814;2022-08-19T11:52:10;98902.03;;;34.12
61390;BMP280;47260;48.274;19.814;2022-08-19T11:54:36;98905.56;;;34.17
61390;BMP280;47260;48.274;19.814;2022-08-19T11:57:03;98908.19;;;34.03
61390;BMP280;47260;48.274;19.814;2022-08-19T11:59:30;98901.88;;;34.00
61390;BMP280;47260;48.274;19.814;2022-08-19T12:01:56;98897.06;;;34.07
61390;BMP280;47260;48.274;19.814;2022-08-19T12:04:24;98891.84;;;34.35
61390;BMP280;47260;48.274;19.814;2022-08-19T12:06:52;98882.66;;;34.26
61390;BMP280;47260;48.274;19.814;2022-08-19T12:09:18;98882.22;;;34.48
61390;BMP280;47260;48.274;19.814;2022-08-19T12:11:45;98879.88;;;34.26
61390;BMP280;47260;48.274;19.814;2022-08-19T12:14:12;98885.50;;;34.30
61390;BMP280;47260;48.274;19.814;2022-08-19T12:16:39;98882.66;;;34.24
61390;BMP280;47260;48.274;19.814;2022-08-19T12:19:06;98888.88;;;34.21
61390;BMP280;47260;48.274;19.814;2022-08-19T12:21:33;98877.63;;;34.13
61390;BMP280;47260;48.274;19.814;2022-08-19T12:24:02;98885.66;;;34.42
61390;BMP280;47260;48.274;19.814;2022-08-19T12:26:29;98881.56;;;34.51
61390;BMP280;47260;48.274;19.814;2022-08-19T12:28:57;98869.94;;;34.73
61390;BMP280;47260;48.274;19.814;2022-08-19T12:31:25;98873.59;;;34.91
61390;BMP280;47260;48.274;19.814;2022-08-19T12:33:51;98870.88;;;34.97
61390;BMP280;47260;48.274;19.814;2022-08-19T12:36:18;98872.69;;;34.69
61390;BMP280;47260;48.274;19.814;2022-08-19T12:38:45;98873.44;;;34.73
61390;BMP280;47260;48.274;19.814;2022-08-19T12:41:13;98876.63;;;34.46
61390;BMP280;47260;48.274;19.814;2022-08-19T12:43:40;98878.56;;;34.33
61390;BMP280;47260;48.274;19.814;2022-08-19T12:46:08;98871.88;;;34.58
61390;BMP280;47260;48.274;19.814;2022-08-19T12:48:35;98868.97;;;34.46
61390;BMP280;47260;48.274;19.814;2022-08-19T12:51:05;98866.31;;;34.60
61390;BMP280;47260;48.274;19.814;2022-08-19T12:53:32;98858.66;;;34.59
61390;BMP280;47260;48.274;19.814;2022-08-19T12:55:59;98862.19;;;34.65
61390;BMP280;47260;48.274;19.814;2022-08-19T12:58:27;98857.41;;;34.76
61390;BMP280;47260;48.274;19.814;2022-08-19T13:00:54;98859.25;;;34.51
61390;BMP280;47260;48.274;19.814;2022-08-19T13:03:21;98851.66;;;34.58
61390;BMP280;47260;48.274;19.814;2022-08-19T13:05:52;98844.69;;;34.57
61390;BMP280;47260;48.274;19.814;2022-08-19T13:08:19;98851.03;;;34.65
61390;BMP280;47260;48.274;19.814;2022-08-19T13:10:45;98851.13;;;34.73
61390;BMP280;47260;48.274;19.814;2022-08-19T13:13:12;98847.00;;;34.80
61390;BMP280;47260;48.274;19.814;2022-08-19T13:15:40;98842.97;;;34.97
61390;BMP280;47260;48.274;19.814;2022-08-19T13:18:08;98844.97;;;34.89
61390;BMP280;47260;48.274;19.814;2022-08-19T13:20:35;98845.69;;;34.87
61390;BMP280;47260;48.274;19.814;2022-08-19T13:23:02;98841.34;;;34.74
61390;BMP280;47260;48.274;19.814;2022-08-19T13:25:29;98837.78;;;34.64
61390;BMP280;47260;48.274;19.814;2022-08-19T13:27:55;98840.63;;;34.72
61390;BMP280;47260;48.274;19.814;2022-08-19T13:30:22;98836.50;;;34.75
61390;BMP280;47260;48.274;19.814;2022-08-19T13:33:08;98835.16;;;34.82
61390;BMP280;47260;48.274;19.814;2022-08-19T13:35:39;98831.72;;;34.87
61390;BMP280;47260;48.274;19.814;2022-08-19T13:38:06;98831.81;;;34.97
61390;BMP280;47260;48.274;19.814;2022-08-19T13:40:33;98830.47;;;35.08
61390;BMP280;47260;48.274;19.814;2022-08-19T13:43:01;98834.00;;;35.13
61390;BMP280;47260;48.274;19.814;2022-08-19T13:45:28;98822.91;;;35.23
61390;BMP280;47260;48.274;19.814;2022-08-19T13:47:58;98827.75;;;35.16
61390;BMP280;47260;48.274;19.814;2022-08-19T13:50:27;98831.19;;;35.11
61390;BMP280;47260;48.274;19.814;2022-08-19T13:52:54;98828.31;;;35.01
61390;BMP280;47260;48.274;19.814;2022-08-19T13:55:21;98828.38;;;35.05
61390;BMP280;47260;48.274;19.814;2022-08-19T13:57:49;98821.44;;;35.10
61390;BMP280;47260;48.274;19.814;2022-08-19T14:00:16;98817.31;;;35.25